Aviation Digital Data Service (ADDS)

Output produced by METARs form (1113 UTC 22 November 2017)
found at http://aviationweather.gov/adds/metars/
 
KRUT 220529Z 2206/2306 16006KT P6SM FEW250 
     FM221100 16005KT P6SM VCSH BKN130 
     FM221400 24004KT 4SM -SHRA BR OVC050 
     FM221600 29005KT P6SM VCSH OVC035 
     FM222100 32009G15KT P6SM BKN045 
     FM222200 32008G14KT P6SM SCT040